Time;durP1;ratioP1;P1;durP2;ratioP2;P2;SDS_P1;SDS_P2;PMS_P1;PMS_P2;Temp;Humidity;BMP_temperature;BMP_pressure;BME280_temperature;BME280_humidity;BME280_pressure;Samples;Min_cycle;Max_cycle;Signal;HPM_P1;HPM_P2
2022/12/23 00:01:05;;;;;;;95.38;60.38;;;17.60;74.10;;;;;;4918852;28;90429;-56
2022/12/23 00:03:32;;;;;;;90.78;59.95;;;17.60;73.90;;;;;;4926385;28;94578;-55
2022/12/23 00:05:58;;;;;;;91.88;59.67;;;17.60;73.90;;;;;;4925583;28;91550;-56
2022/12/23 00:08:25;;;;;;;90.70;59.28;;;17.60;73.50;;;;;;4917568;28;90885;-53
2022/12/23 00:10:52;;;;;;;88.18;59.92;;;17.60;73.50;;;;;;4922611;28;89211;-55
2022/12/23 00:16:08;;;;;;;91.18;58.85;;;17.60;73.50;;;;;;4923664;28;89909;-55
2022/12/23 00:18:34;;;;;;;91.55;58.83;;;17.60;73.20;;;;;;4919694;28;94384;-53
2022/12/23 00:21:02;;;;;;;88.78;58.72;;;17.60;73.10;;;;;;4919553;28;91921;-55
2022/12/23 00:23:31;;;;;;;88.82;58.60;;;17.60;73.20;;;;;;4931300;28;90146;-56
2022/12/23 00:25:57;;;;;;;85.22;57.83;;;17.60;73.10;;;;;;4925112;28;90494;-51
2022/12/23 00:28:24;;;;;;;89.13;58.67;;;17.50;73.00;;;;;;4928700;28;91118;-50
2022/12/23 00:30:58;;;;;;;84.80;57.75;;;17.50;72.90;;;;;;4926306;28;89537;-57
2022/12/23 00:33:27;;;;;;;84.53;56.72;;;17.50;72.80;;;;;;4925866;28;90139;-55
2022/12/23 00:35:53;;;;;;;87.13;57.53;;;17.50;72.70;;;;;;4919395;28;90752;-55
2022/12/23 00:42:52;;;;;;;88.10;57.97;;;17.50;72.70;;;;;;4927970;28;90969;-53
2022/12/23 00:44:01;;;;;;;85.10;57.55;;;17.50;72.70;;;;;;4921528;28;95901;-56
2022/12/23 00:46:27;;;;;;;85.97;58.30;;;17.40;72.50;;;;;;4926249;28;92649;-53
2022/12/23 00:51:37;;;;;;;83.35;57.58;;;17.40;72.50;;;;;;4921532;28;94244;-53
2022/12/23 00:54:04;;;;;;;87.45;58.15;;;17.40;72.80;;;;;;4924327;28;91743;-55
2022/12/23 00:56:30;;;;;;;86.22;57.22;;;17.40;72.50;;;;;;4927529;28;89672;-55
2022/12/23 00:58:56;;;;;;;85.47;58.13;;;17.40;72.50;;;;;;4926605;28;93741;-56
2022/12/23 01:06:50;;;;;;;84.60;56.55;;;17.30;72.40;;;;;;4926102;28;91328;-56
2022/12/23 01:09:21;;;;;;;82.18;56.53;;;17.30;72.40;;;;;;4917761;28;94519;-55
2022/12/23 01:11:47;;;;;;;85.70;57.00;;;17.30;72.40;;;;;;4920480;28;89893;-55
2022/12/23 01:14:12;;;;;;;82.18;55.92;;;17.30;72.40;;;;;;4933738;28;91972;-56
2022/12/23 01:16:39;;;;;;;80.18;56.20;;;17.30;72.50;;;;;;4921520;28;89950;-54
2022/12/23 01:19:06;;;;;;;80.72;55.65;;;17.30;72.50;;;;;;4927629;28;90904;-52
2022/12/23 01:21:32;;;;;;;83.20;56.25;;;17.30;72.50;;;;;;4916343;28;90609;-51
2022/12/23 01:23:58;;;;;;;84.47;56.10;;;17.30;72.30;;;;;;4934058;28;93023;-54
2022/12/23 01:26:23;;;;;;;79.13;54.65;;;17.30;72.30;;;;;;4918701;28;89371;-51
2022/12/23 01:28:54;;;;;;;84.57;56.20;;;17.30;72.30;;;;;;4927126;28;90196;-54
2022/12/23 01:31:20;;;;;;;81.15;55.33;;;17.30;72.20;;;;;;4923581;28;89872;-53
2022/12/23 01:33:46;;;;;;;78.95;55.05;;;17.20;72.20;;;;;;4919709;28;92042;-54
2022/12/23 01:36:12;;;;;;;80.80;55.58;;;17.20;72.10;;;;;;4923527;28;92083;-54
2022/12/23 01:38:38;;;;;;;79.55;55.25;;;17.30;72.30;;;;;;4924123;28;90064;-53
2022/12/23 01:41:04;;;;;;;81.65;55.05;;;17.20;72.20;;;;;;4928468;28;89570;-55
2022/12/23 01:43:48;;;;;;;80.22;55.28;;;17.20;72.10;;;;;;4917241;28;91274;-56
2022/12/23 01:46:14;;;;;;;81.15;55.90;;;17.20;72.10;;;;;;4925895;28;89782;-55
2022/12/23 01:48:44;;;;;;;79.75;55.42;;;17.20;72.10;;;;;;4919116;28;90967;-53
2022/12/23 01:51:24;;;;;;;79.60;55.00;;;17.20;72.10;;;;;;4932459;28;89063;-54
2022/12/23 01:53:53;;;;;;;78.50;54.38;;;17.20;72.00;;;;;;4933305;28;89941;-54
2022/12/23 01:56:33;;;;;;;83.18;54.95;;;17.20;72.00;;;;;;4928337;28;90281;-53
2022/12/23 02:03:40;;;;;;;77.82;53.97;;;17.20;72.10;;;;;;4928732;28;91532;-56
2022/12/23 02:04:42;;;;;;;78.78;54.50;;;17.10;71.80;;;;;;4928960;28;91967;-53
2022/12/23 02:09:52;;;;;;;75.20;53.67;;;17.20;71.90;;;;;;4924161;28;91990;-54
2022/12/23 02:12:35;;;;;;;78.95;54.40;;;17.20;71.80;;;;;;4923339;28;94274;-54
2022/12/23 02:18:15;;;;;;;77.55;54.63;;;17.10;71.80;;;;;;4923791;28;90114;-51
2022/12/23 02:20:51;;;;;;;77.27;54.00;;;17.10;71.80;;;;;;4924490;28;90907;-55
2022/12/23 02:23:58;;;;;;;77.65;53.15;;;17.10;71.80;;;;;;4927718;28;89645;-53
2022/12/23 02:26:39;;;;;;;77.80;53.72;;;17.10;71.70;;;;;;4934035;28;91434;-55
2022/12/23 02:29:32;;;;;;;78.32;53.20;;;17.10;71.70;;;;;;4923729;28;90976;-54
2022/12/23 02:32:07;;;;;;;76.70;53.25;;;17.10;71.80;;;;;;4930891;28;89924;-54
2022/12/23 02:34:53;;;;;;;76.15;53.40;;;17.00;71.60;;;;;;4927423;28;92874;-55
2022/12/23 02:37:34;;;;;;;75.97;52.47;;;17.00;71.70;;;;;;4931313;28;90933;-53
2022/12/23 02:40:00;;;;;;;;;;;17.00;71.70;;;;;;4924262;28;90850;-53
2022/12/23 02:42:35;;;;;;;75.75;53.10;;;17.00;71.80;;;;;;4926704;28;91601;-52
2022/12/23 02:45:24;;;;;;;76.60;53.80;;;17.00;71.80;;;;;;4920490;28;91435;-53
2022/12/23 02:48:04;;;;;;;76.25;53.10;;;17.00;71.70;;;;;;4932686;28;91302;-54
2022/12/23 02:50:34;;;;;;;77.85;52.78;;;17.00;71.70;;;;;;4926756;28;90974;-54
2022/12/23 02:53:06;;;;;;;75.65;53.10;;;17.00;71.60;;;;;;4924112;28;90813;-54
2022/12/23 02:55:35;;;;;;;75.78;53.40;;;16.90;71.50;;;;;;4926786;28;93061;-55
2022/12/23 02:58:06;;;;;;;74.55;52.72;;;16.90;71.50;;;;;;4921992;28;90225;-54
2022/12/23 03:00:33;;;;;;;76.50;52.90;;;16.90;71.60;;;;;;4927529;28;90655;-54
2022/12/23 03:02:58;;;;;;;76.82;53.20;;;16.90;71.60;;;;;;4919257;28;91227;-54
2022/12/23 03:05:27;;;;;;;75.35;53.40;;;16.90;71.60;;;;;;4930919;28;89672;-53
2022/12/23 03:07:58;;;;;;;76.88;52.78;;;16.90;71.50;;;;;;4919061;28;91146;-54
2022/12/23 03:10:56;;;;;;;74.88;52.72;;;16.90;71.50;;;;;;4924045;28;89236;-54
2022/12/23 03:13:37;;;;;;;75.20;52.65;;;16.90;71.60;;;;;;4923522;28;91656;-55
2022/12/23 03:16:20;;;;;;;75.17;52.13;;;16.90;71.50;;;;;;4916423;28;90580;-55
2022/12/23 03:19:06;;;;;;;74.63;53.05;;;16.80;71.50;;;;;;4925184;28;92402;-54
2022/12/23 03:21:32;;;;;;;75.68;52.47;;;16.90;71.50;;;;;;4917332;28;91912;-50
2022/12/23 03:24:14;;;;;;;75.68;52.92;;;16.90;71.50;;;;;;4927676;28;90955;-55
2022/12/23 03:26:48;;;;;;;77.40;53.03;;;16.80;71.50;;;;;;4928350;28;90117;-54
2022/12/23 03:29:50;;;;;;;73.78;52.72;;;16.80;71.50;;;;;;4923001;28;89965;-55
2022/12/23 03:32:18;;;;;;;73.68;52.72;;;16.80;71.50;;;;;;4919109;28;89706;-56
2022/12/23 03:34:47;;;;;;;74.10;52.47;;;16.80;71.40;;;;;;4922683;28;90389;-53
2022/12/23 03:37:17;;;;;;;74.55;52.25;;;16.80;71.50;;;;;;4922655;28;89453;-54
2022/12/23 03:39:51;;;;;;;74.75;52.47;;;16.80;71.50;;;;;;4910199;28;91840;-54
2022/12/23 03:42:24;;;;;;;74.53;52.38;;;16.80;71.40;;;;;;4929322;28;90497;-55
2022/12/23 03:44:52;;;;;;;73.80;52.35;;;16.80;72.20;;;;;;4932684;28;90868;-53
2022/12/23 03:47:26;;;;;;;73.97;51.80;;;16.80;71.40;;;;;;4928724;28;90074;-55
2022/12/23 03:49:57;;;;;;;75.82;52.05;;;16.80;71.40;;;;;;4921783;28;90396;-56
2022/12/23 03:52:40;;;;;;;73.53;52.13;;;16.80;71.40;;;;;;4921618;28;90481;-55
2022/12/23 03:55:14;;;;;;;75.15;52.20;;;16.80;71.40;;;;;;4925597;28;90317;-51
2022/12/23 03:57:50;;;;;;;72.55;51.92;;;16.80;71.30;;;;;;4931543;28;90928;-54
2022/12/23 04:00:16;;;;;;;72.93;51.70;;;16.80;71.40;;;;;;4928844;28;90753;-54
2022/12/23 04:02:58;;;;;;;73.55;52.05;;;16.70;71.40;;;;;;4917160;28;89927;-55
2022/12/23 04:05:34;;;;;;;73.05;51.88;;;16.70;72.10;;;;;;4928849;28;90338;-54
2022/12/23 04:08:12;;;;;;;73.10;51.85;;;16.70;71.30;;;;;;4926638;28;95601;-53
2022/12/23 04:10:38;;;;;;;74.18;51.92;;;16.70;71.40;;;;;;4924223;28;95953;-55
2022/12/23 04:13:04;;;;;;;74.65;51.92;;;16.70;71.40;;;;;;4928480;28;91613;-55
2022/12/23 04:15:30;;;;;;;73.63;51.78;;;16.70;71.40;;;;;;4925999;28;90482;-54
2022/12/23 04:17:56;;;;;;;73.25;52.83;;;16.70;71.30;;;;;;4917482;28;90955;-52
2022/12/23 04:20:22;;;;;;;74.68;51.75;;;16.70;71.40;;;;;;4927883;28;90688;-52
2022/12/23 04:22:48;;;;;;;73.20;51.80;;;16.70;71.30;;;;;;4917355;28;96588;-54
2022/12/23 04:25:15;;;;;;;73.13;51.38;;;16.70;71.40;;;;;;4933514;28;91432;-55
2022/12/23 04:27:41;;;;;;;73.03;51.75;;;16.70;71.40;;;;;;4929999;28;89356;-54
2022/12/23 04:30:09;;;;;;;74.60;52.35;;;16.70;71.40;;;;;;4938470;28;90639;-55
2022/12/23 04:32:35;;;;;;;74.00;51.67;;;16.70;71.40;;;;;;4925981;28;90551;-54
2022/12/23 04:35:01;;;;;;;72.65;51.50;;;16.70;71.40;;;;;;4925227;28;91543;-53
2022/12/23 04:37:27;;;;;;;75.18;52.58;;;16.70;71.40;;;;;;4916547;28;93607;-55
2022/12/23 04:39:52;;;;;;;73.18;51.63;;;16.70;71.40;;;;;;4931579;28;90061;-53
2022/12/23 04:42:18;;;;;;;72.35;51.47;;;16.60;71.30;;;;;;4935738;28;90552;-54
2022/12/23 04:44:43;;;;;;;72.18;51.67;;;16.60;71.30;;;;;;4928227;28;91595;-51
2022/12/23 04:47:09;;;;;;;72.07;51.40;;;16.70;71.30;;;;;;4923543;28;90021;-55
2022/12/23 04:49:35;;;;;;;72.93;51.83;;;16.70;71.40;;;;;;4935422;28;90381;-55
2022/12/23 04:52:00;;;;;;;72.93;51.28;;;16.70;71.40;;;;;;4917242;28;91709;-54
2022/12/23 04:54:26;;;;;;;73.97;51.75;;;16.60;71.30;;;;;;4922559;28;90079;-52
2022/12/23 04:56:52;;;;;;;73.75;52.00;;;16.60;71.30;;;;;;4930837;28;89519;-54
2022/12/23 04:59:17;;;;;;;74.78;51.25;;;16.60;71.20;;;;;;4923411;28;92482;-54
2022/12/23 05:01:43;;;;;;;71.80;51.45;;;16.60;71.20;;;;;;4914610;28;91625;-56
2022/12/23 05:04:09;;;;;;;72.53;51.30;;;16.60;71.30;;;;;;4922717;28;92769;-53
2022/12/23 05:06:36;;;;;;;72.65;51.53;;;16.60;71.20;;;;;;4931413;28;90056;-54
2022/12/23 05:09:02;;;;;;;72.15;51.05;;;16.60;71.20;;;;;;4924409;28;90118;-55
2022/12/23 05:11:28;;;;;;;70.63;51.13;;;16.60;71.30;;;;;;4931410;28;90730;-54
2022/12/23 05:13:53;;;;;;;73.32;51.22;;;16.60;71.40;;;;;;4928475;28;90822;-55
2022/12/23 05:16:19;;;;;;;71.65;51.47;;;16.60;71.30;;;;;;4922333;28;91043;-55
2022/12/23 05:18:45;;;;;;;71.68;51.17;;;16.60;71.30;;;;;;4923889;28;90761;-56
2022/12/23 05:21:10;;;;;;;72.90;51.15;;;16.60;71.30;;;;;;4917907;28;90607;-53
2022/12/23 05:23:37;;;;;;;72.35;51.65;;;16.60;71.30;;;;;;4927132;28;92129;-57
2022/12/23 05:26:02;;;;;;;72.07;51.30;;;16.50;71.40;;;;;;4919167;28;89722;-52
2022/12/23 05:28:28;;;;;;;72.78;51.03;;;16.50;71.40;;;;;;4924851;28;90185;-54
2022/12/23 05:31:12;;;;;;;71.63;51.08;;;16.50;71.30;;;;;;4925101;28;91799;-53
2022/12/23 05:33:39;;;;;;;74.28;51.47;;;16.50;71.30;;;;;;4929044;28;90166;-53
2022/12/23 05:36:05;;;;;;;72.63;51.30;;;16.50;71.30;;;;;;4917429;28;94470;-53
2022/12/23 05:38:31;;;;;;;71.93;51.38;;;16.50;72.10;;;;;;4936801;28;89739;-54
2022/12/23 05:40:57;;;;;;;70.75;51.35;;;16.50;71.20;;;;;;4920535;28;90320;-55
2022/12/23 05:43:22;;;;;;;71.43;50.83;;;16.50;71.30;;;;;;4925052;28;89910;-54
2022/12/23 05:45:49;;;;;;;70.32;51.00;;;16.50;71.30;;;;;;4922754;28;92023;-59
2022/12/23 05:48:15;;;;;;;71.07;50.85;;;16.50;71.30;;;;;;4919013;28;91313;-51
2022/12/23 05:50:41;;;;;;;73.65;51.67;;;16.50;71.30;;;;;;4919239;28;91733;-53
2022/12/23 05:53:07;;;;;;;71.10;51.42;;;16.50;71.40;;;;;;4924006;28;90168;-55
2022/12/23 05:55:34;;;;;;;70.57;50.55;;;16.40;71.30;;;;;;4921346;28;96365;-55
2022/12/23 05:57:59;;;;;;;71.60;50.90;;;16.50;71.40;;;;;;4923387;28;90202;-52
2022/12/23 06:00:25;;;;;;;71.82;50.85;;;16.50;71.40;;;;;;4923398;28;95355;-55
2022/12/23 06:02:51;;;;;;;71.55;50.75;;;16.50;71.40;;;;;;4915829;28;91013;-55
2022/12/23 06:05:17;;;;;;;72.13;51.22;;;16.40;71.20;;;;;;4920432;28;90897;-56
2022/12/23 06:07:43;;;;;;;73.18;51.80;;;16.40;71.40;;;;;;4916428;28;90027;-54
2022/12/23 06:10:10;;;;;;;72.05;51.05;;;16.40;71.40;;;;;;4920416;28;92331;-54
2022/12/23 06:12:36;;;;;;;72.28;51.05;;;16.40;71.40;;;;;;4907206;28;92298;-55
2022/12/23 06:15:02;;;;;;;71.80;51.08;;;16.40;71.40;;;;;;4914022;28;90391;-52
2022/12/23 06:17:27;;;;;;;71.60;50.80;;;16.40;71.40;;;;;;4918049;28;89894;-54
2022/12/23 06:19:53;;;;;;;72.93;51.17;;;16.40;71.50;;;;;;4912658;28;90918;-49
2022/12/23 06:22:22;;;;;;;74.85;51.30;;;16.40;71.50;;;;;;4915837;28;90214;-53
2022/12/23 06:24:49;;;;;;;70.90;50.65;;;16.40;71.70;;;;;;4921423;28;90066;-54
2022/12/23 06:27:14;;;;;;;74.82;50.97;;;16.40;71.70;;;;;;4923376;28;96203;-54
2022/12/23 06:29:40;;;;;;;71.32;50.95;;;16.40;71.70;;;;;;4913000;28;90711;-55
2022/12/23 06:32:06;;;;;;;71.35;50.90;;;16.40;71.70;;;;;;4917866;28;90073;-55
2022/12/23 06:34:32;;;;;;;71.38;50.97;;;16.40;71.70;;;;;;4921488;28;95762;-53
2022/12/23 06:36:57;;;;;;;70.35;50.53;;;16.40;71.80;;;;;;4923672;28;91205;-53
2022/12/23 06:39:23;;;;;;;75.88;51.22;;;16.40;71.90;;;;;;4916494;28;90903;-54
2022/12/23 06:41:49;;;;;;;71.05;51.28;;;16.40;71.80;;;;;;4917805;28;93201;-50
2022/12/23 06:44:15;;;;;;;72.57;50.67;;;16.40;71.80;;;;;;4922460;28;90036;-53
2022/12/23 06:46:41;;;;;;;72.35;51.13;;;16.40;71.80;;;;;;4926098;28;90226;-54
2022/12/23 06:49:06;;;;;;;74.93;50.47;;;16.40;71.80;;;;;;4920460;28;90259;-55
2022/12/23 06:51:32;;;;;;;70.97;50.58;;;16.40;71.80;;;;;;4912609;28;89960;-55
2022/12/23 06:53:58;;;;;;;71.25;50.47;;;16.40;71.80;;;;;;4924368;28;89136;-53
2022/12/23 06:56:24;;;;;;;71.68;50.85;;;16.40;71.80;;;;;;4918941;28;90873;-54
2022/12/23 06:58:51;;;;;;;73.35;50.97;;;16.40;71.70;;;;;;4917809;28;92580;-54
2022/12/23 07:01:17;;;;;;;72.40;50.58;;;16.40;71.80;;;;;;4918957;28;91261;-56
2022/12/23 07:03:43;;;;;;;71.15;50.47;;;16.40;71.70;;;;;;4928303;28;90986;-54
2022/12/23 07:06:09;;;;;;;76.30;51.05;;;16.40;71.80;;;;;;4920044;28;91074;-55
2022/12/23 07:08:35;;;;;;;71.22;51.08;;;16.40;71.70;;;;;;4914074;28;90145;-51
2022/12/23 07:11:02;;;;;;;72.60;50.70;;;16.40;71.80;;;;;;4929629;28;93009;-53
2022/12/23 07:13:34;;;;;;;73.88;50.50;;;16.30;71.70;;;;;;4917938;28;89871;-51
2022/12/23 07:16:06;;;;;;;72.38;50.97;;;16.30;71.60;;;;;;4925292;28;90910;-55
2022/12/23 07:18:32;;;;;;;74.43;50.83;;;16.30;71.80;;;;;;4921684;28;89374;-54
2022/12/23 07:21:02;;;;;;;72.25;50.55;;;16.30;71.80;;;;;;4929503;28;89880;-52
2022/12/23 07:23:28;;;;;;;71.40;50.67;;;16.30;71.80;;;;;;4931122;28;89854;-55
2022/12/23 07:25:54;;;;;;;70.55;50.63;;;16.30;71.80;;;;;;4921085;28;92100;-53
2022/12/23 07:28:21;;;;;;;70.80;51.20;;;16.30;72.50;;;;;;4924931;28;90755;-52
2022/12/23 07:30:46;;;;;;;73.85;51.67;;;16.40;71.80;;;;;;4927210;28;90143;-54
2022/12/23 07:33:12;;;;;;;73.03;51.10;;;16.40;71.80;;;;;;4921517;28;90893;-55
2022/12/23 07:35:38;;;;;;;73.70;50.63;;;16.40;71.70;;;;;;4912311;28;90706;-52
2022/12/23 07:38:03;;;;;;;74.85;51.15;;;16.40;71.70;;;;;;4924467;28;91552;-54
2022/12/23 07:40:29;;;;;;;71.80;50.97;;;16.40;71.80;;;;;;4924157;28;90580;-53
2022/12/23 07:42:57;;;;;;;75.10;51.30;;;16.40;71.80;;;;;;4916149;28;89375;-54
2022/12/23 07:45:24;;;;;;;74.85;50.55;;;16.40;72.20;;;;;;4922658;28;89944;-53
2022/12/23 07:47:58;;;;;;;72.07;51.17;;;16.40;72.30;;;;;;4921804;28;91255;-49
2022/12/23 07:50:25;;;;;;;73.05;50.80;;;16.40;72.30;;;;;;4925214;28;91182;-54
2022/12/23 07:52:52;;;;;;;72.40;51.05;;;16.40;72.40;;;;;;4917495;28;90043;-53
2022/12/23 07:55:19;;;;;;;71.60;50.88;;;16.40;72.40;;;;;;4924056;28;90094;-55
2022/12/23 07:57:49;;;;;;;75.95;50.85;;;16.40;72.50;;;;;;4920062;28;89912;-54
2022/12/23 08:00:15;;;;;;;74.55;50.97;;;16.40;72.30;;;;;;4926703;28;98839;-54
2022/12/23 08:02:41;;;;;;;74.78;50.90;;;16.40;72.50;;;;;;4921123;28;91337;-54
2022/12/23 08:05:07;;;;;;;70.78;50.80;;;16.40;72.50;;;;;;4925132;28;92273;-53
2022/12/23 08:07:33;;;;;;;74.72;50.92;;;16.30;72.40;;;;;;4924893;28;90973;-55
2022/12/23 08:09:59;;;;;;;73.15;51.33;;;16.30;72.50;;;;;;4925592;28;90937;-55
2022/12/23 08:12:24;;;;;;;73.15;51.33;;;16.30;72.50;;;;;;4931811;28;90485;-55
2022/12/23 08:14:51;;;;;;;73.85;52.63;;;16.30;72.40;;;;;;4912122;28;92201;-55
2022/12/23 08:17:20;;;;;;;73.53;50.70;;;16.30;72.40;;;;;;4923741;28;91992;-55
2022/12/23 08:19:46;;;;;;;74.60;51.08;;;16.30;72.40;;;;;;4943471;28;93547;-56
2022/12/23 08:22:12;;;;;;;74.90;50.88;;;16.30;72.30;;;;;;4920398;28;89951;-55
2022/12/23 08:24:38;;;;;;;76.97;50.80;;;16.30;73.10;;;;;;4929443;28;90239;-54
2022/12/23 08:27:04;;;;;;;70.35;50.60;;;16.30;72.40;;;;;;4931112;28;91154;-54
2022/12/23 08:29:29;;;;;;;72.00;51.03;;;16.30;72.40;;;;;;4912009;28;92817;-54
2022/12/23 08:31:55;;;;;;;72.32;51.42;;;16.30;72.30;;;;;;4913249;28;94716;-53
2022/12/23 08:34:21;;;;;;;71.95;50.65;;;16.30;72.30;;;;;;4928240;28;93123;-55
2022/12/23 08:36:46;;;;;;;72.85;50.97;;;16.30;72.20;;;;;;4918857;28;89988;-59
2022/12/23 08:39:13;;;;;;;72.78;51.03;;;16.30;72.20;;;;;;4922228;28;90824;-58
2022/12/23 08:41:42;;;;;;;71.78;51.47;;;16.40;73.00;;;;;;4920623;28;90574;-52
2022/12/23 08:44:08;;;;;;;72.57;51.17;;;16.60;72.90;;;;;;4929144;28;91258;-52
2022/12/23 08:46:34;;;;;;;71.13;51.10;;;16.70;72.80;;;;;;4923281;28;90238;-52
2022/12/23 08:48:59;;;;;;;72.03;51.15;;;16.70;72.60;;;;;;4913163;28;92387;-51
2022/12/23 08:51:27;;;;;;;73.15;51.15;;;16.70;72.20;;;;;;4929107;28;89940;-51
2022/12/23 08:53:58;;;;;;;72.07;51.15;;;16.70;71.80;;;;;;4923166;28;91574;-53
2022/12/23 08:56:26;;;;;;;71.65;50.92;;;16.70;71.50;;;;;;4929132;28;90704;-50
2022/12/23 08:58:53;;;;;;;74.93;51.47;;;16.70;71.30;;;;;;4916808;28;91299;-54
2022/12/23 09:01:22;;;;;;;71.93;50.90;;;16.70;71.10;;;;;;4917929;28;90585;-53
2022/12/23 09:03:48;;;;;;;71.38;51.17;;;16.70;71.20;;;;;;4923661;28;91961;-50
2022/12/23 09:06:15;;;;;;;73.65;51.65;;;16.70;70.90;;;;;;4931078;28;90414;-53
2022/12/23 09:08:41;;;;;;;72.82;51.60;;;16.70;71.00;;;;;;4935994;28;90149;-54
2022/12/23 09:11:08;;;;;;;72.88;51.70;;;16.70;71.00;;;;;;4933301;28;90366;-52
2022/12/23 09:13:34;;;;;;;79.88;51.45;;;16.60;70.80;;;;;;4919454;28;90676;-52
2022/12/23 09:16:00;;;;;;;73.72;51.97;;;16.70;70.80;;;;;;4941869;28;90428;-53
2022/12/23 09:18:25;;;;;;;72.85;51.92;;;16.70;70.60;;;;;;4926349;28;91685;-49
2022/12/23 09:20:57;;;;;;;72.80;51.40;;;16.70;70.60;;;;;;4932668;28;89349;-53
2022/12/23 09:23:23;;;;;;;71.75;51.17;;;16.70;70.60;;;;;;4913374;28;91597;-52
2022/12/23 09:25:48;;;;;;;74.28;51.85;;;16.70;70.60;;;;;;4915204;28;91621;-53
2022/12/23 09:28:14;;;;;;;74.30;53.38;;;16.60;70.40;;;;;;4924209;28;91633;-54
2022/12/23 09:30:40;;;;;;;75.20;52.58;;;16.50;70.40;;;;;;4925858;28;90171;-49
2022/12/23 09:33:05;;;;;;;75.72;52.60;;;16.60;70.30;;;;;;4907709;28;90124;-49
2022/12/23 09:35:32;;;;;;;74.00;53.08;;;16.50;70.00;;;;;;4925973;28;93303;-51
2022/12/23 09:37:57;;;;;;;73.68;52.33;;;16.50;69.90;;;;;;4933808;28;92154;-50
2022/12/23 09:40:23;;;;;;;76.85;52.75;;;16.40;69.90;;;;;;4911752;28;92609;-51
2022/12/23 09:43:13;;;;;;;79.82;52.88;;;16.40;70.50;;;;;;4923590;28;90571;-52
2022/12/23 09:46:02;;;;;;;77.95;52.88;;;16.40;71.10;;;;;;4927847;28;89392;-53
2022/12/23 09:48:34;;;;;;;81.47;54.63;;;16.40;71.60;;;;;;4922007;28;91062;-48
2022/12/23 09:51:02;;;;;;;81.35;56.17;;;16.30;71.80;;;;;;4926325;28;90437;-53
2022/12/23 09:54:10;;;;;;;81.70;57.15;;;16.30;72.00;;;;;;4926636;28;92111;-55
2022/12/23 09:57:08;;;;;;;83.97;56.90;;;16.40;72.10;;;;;;4924693;28;90780;-53
2022/12/23 10:00:03;;;;;;;83.20;57.25;;;16.50;72.30;;;;;;4924674;28;92268;-55
2022/12/23 10:02:53;;;;;;;84.47;56.80;;;16.50;72.50;;;;;;4926915;28;90506;-50
2022/12/23 10:05:34;;;;;;;81.60;55.85;;;16.50;72.50;;;;;;4930257;28;90898;-52
2022/12/23 10:08:33;;;;;;;80.10;55.50;;;16.50;72.20;;;;;;4926894;28;92401;-52
2022/12/23 10:11:27;;;;;;;78.93;55.40;;;16.60;72.20;;;;;;4920297;28;92386;-53
2022/12/23 10:14:29;;;;;;;79.55;54.83;;;16.60;71.90;;;;;;4916974;28;91053;-52
2022/12/23 10:17:14;;;;;;;79.85;55.22;;;16.70;71.70;;;;;;4918908;28;90764;-55
2022/12/23 10:19:44;;;;;;;81.50;55.08;;;16.70;71.50;;;;;;4931859;28;92668;-53
2022/12/23 10:22:33;;;;;;;80.00;54.60;;;16.70;71.40;;;;;;4923584;28;91375;-53
2022/12/23 10:25:00;;;;;;;78.95;54.92;;;16.80;71.20;;;;;;4930291;28;89982;-54
2022/12/23 10:27:40;;;;;;;79.50;55.00;;;16.70;71.40;;;;;;4926030;28;91001;-54
2022/12/23 10:30:16;;;;;;;82.18;55.10;;;16.70;71.70;;;;;;4925610;28;90385;-54
2022/12/23 10:33:06;;;;;;;81.60;54.83;;;16.70;71.80;;;;;;4932793;28;91058;-54
2022/12/23 10:35:57;;;;;;;78.70;55.03;;;16.80;71.50;;;;;;4925022;28;91930;-55
2022/12/23 10:38:41;;;;;;;81.03;55.03;;;16.90;71.40;;;;;;4935832;28;90050;-50
2022/12/23 10:41:44;;;;;;;79.93;55.17;;;16.90;71.20;;;;;;4925408;28;90322;-50
2022/12/23 10:44:30;;;;;;;79.40;54.40;;;17.00;71.20;;;;;;4917223;28;89901;-56
2022/12/23 10:47:23;;;;;;;77.78;54.15;;;17.00;70.90;;;;;;4918928;28;91220;-54
2022/12/23 10:50:21;;;;;;;79.15;54.38;;;17.00;70.90;;;;;;4926878;28;92285;-59
2022/12/23 10:52:48;;;;;;;75.30;54.13;;;17.10;70.90;;;;;;4921229;28;90973;-55
2022/12/23 10:55:25;;;;;;;75.10;53.30;;;17.00;70.80;;;;;;4927953;28;89888;-55
2022/12/23 10:57:51;;;;;;;76.22;53.90;;;17.10;70.80;;;;;;4919517;28;91450;-55
2022/12/23 11:00:21;;;;;;;78.20;54.10;;;17.00;70.70;;;;;;4924168;28;92610;-54
2022/12/23 11:03:05;;;;;;;82.00;53.63;;;17.00;70.90;;;;;;4908089;28;90898;-55
2022/12/23 11:05:33;;;;;;;76.90;53.17;;;17.10;71.50;;;;;;4917767;28;90108;-52
2022/12/23 11:07:59;;;;;;;78.60;53.55;;;17.10;72.10;;;;;;4914227;28;92424;-54
2022/12/23 11:10:31;;;;;;;76.97;53.33;;;17.10;72.30;;;;;;4916447;28;96299;-54
2022/12/23 11:12:58;;;;;;;75.15;53.38;;;17.10;72.10;;;;;;4910325;28;91073;-54
2022/12/23 11:15:25;;;;;;;75.85;53.15;;;17.20;72.40;;;;;;4919238;28;90896;-55
2022/12/23 11:18:26;;;;;;;76.93;53.42;;;17.20;72.60;;;;;;4918066;28;89867;-52
2022/12/23 11:21:03;;;;;;;73.85;53.08;;;17.20;72.20;;;;;;4919038;28;91715;-55
2022/12/23 11:23:34;;;;;;;76.25;52.78;;;17.20;72.20;;;;;;4916720;28;94593;-53
2022/12/23 11:26:03;;;;;;;76.20;52.35;;;17.20;72.00;;;;;;4927767;28;91283;-55
2022/12/23 11:28:31;;;;;;;75.57;52.30;;;17.30;72.00;;;;;;4918558;28;90581;-55
2022/12/23 11:31:10;;;;;;;74.50;52.78;;;17.20;71.80;;;;;;4913780;28;90018;-56
2022/12/23 11:33:54;;;;;;;79.30;53.28;;;17.20;72.00;;;;;;4918973;28;90184;-55
2022/12/23 11:36:26;;;;;;;76.57;52.53;;;17.20;72.10;;;;;;4914429;28;90804;-53
2022/12/23 11:39:06;;;;;;;73.03;52.17;;;17.20;72.40;;;;;;4931844;28;90266;-53
2022/12/23 11:41:46;;;;;;;74.63;52.70;;;17.20;72.50;;;;;;4925402;28;91753;-54
2022/12/23 11:44:29;;;;;;;73.20;51.92;;;17.20;72.30;;;;;;4922572;28;95195;-53
2022/12/23 11:46:55;;;;;;;74.68;52.22;;;17.20;72.30;;;;;;4920994;28;90778;-54
2022/12/23 11:49:27;;;;;;;73.15;51.97;;;17.20;72.20;;;;;;4918547;28;92283;-53
2022/12/23 11:52:01;;;;;;;73.18;51.95;;;17.20;72.20;;;;;;4923170;28;90292;-52
2022/12/23 11:54:28;;;;;;;73.07;52.13;;;17.30;72.30;;;;;;4917163;28;91184;-55
2022/12/23 11:56:54;;;;;;;75.03;52.45;;;17.20;72.20;;;;;;4934003;28;90074;-54
2022/12/23 11:59:32;;;;;;;73.95;52.25;;;17.30;72.20;;;;;;4923326;28;89532;-53
2022/12/23 12:02:01;;;;;;;74.45;52.00;;;17.30;72.30;;;;;;4919035;28;90736;-53
2022/12/23 12:04:32;;;;;;;72.78;52.20;;;17.30;72.30;;;;;;4914958;28;91583;-55
2022/12/23 12:06:59;;;;;;;74.07;52.42;;;17.30;72.20;;;;;;4931247;28;91140;-50
2022/12/23 12:09:26;;;;;;;74.30;51.78;;;17.40;72.30;;;;;;4931120;28;90203;-56
2022/12/23 12:12:16;;;;;;;74.53;51.72;;;17.40;72.10;;;;;;4930883;28;91545;-57
2022/12/23 12:14:53;;;;;;;75.68;52.13;;;17.50;72.20;;;;;;4921490;28;90380;-53
2022/12/23 12:17:26;;;;;;;79.32;52.25;;;17.50;72.10;;;;;;4921604;28;93344;-52
2022/12/23 12:20:03;;;;;;;74.55;52.15;;;17.60;72.20;;;;;;4918918;28;91301;-53
2022/12/23 12:22:47;;;;;;;73.55;52.15;;;17.60;72.10;;;;;;4929692;28;90719;-52
2022/12/23 12:25:20;;;;;;;76.05;51.42;;;17.60;71.90;;;;;;4927509;28;89989;-54
2022/12/23 12:28:01;;;;;;;72.63;51.78;;;17.50;71.90;;;;;;4924208;28;89869;-54
2022/12/23 12:30:38;;;;;;;76.95;52.13;;;17.50;71.90;;;;;;4931825;28;89910;-52
2022/12/23 12:33:13;;;;;;;77.60;51.97;;;17.60;72.10;;;;;;4928168;28;93081;-53
2022/12/23 12:35:53;;;;;;;75.65;51.92;;;17.60;72.20;;;;;;4926827;28;96081;-49
2022/12/23 12:38:28;;;;;;;74.68;52.35;;;17.60;72.10;;;;;;4927997;28;89968;-53
2022/12/23 12:41:06;;;;;;;76.30;52.58;;;17.60;72.10;;;;;;4927260;28;89853;-53
2022/12/23 12:43:38;;;;;;;73.80;52.67;;;17.60;72.20;;;;;;4931653;28;90147;-55
2022/12/23 12:46:25;;;;;;;73.65;52.83;;;17.70;72.50;;;;;;4923628;28;90137;-52
2022/12/23 12:48:59;;;;;;;74.30;52.42;;;17.80;72.50;;;;;;4925598;28;92622;-53
2022/12/23 12:51:41;;;;;;;74.82;52.25;;;17.90;72.50;;;;;;4930969;28;91353;-54
2022/12/23 12:54:13;;;;;;;76.72;52.38;;;17.90;72.30;;;;;;4928604;28;89619;-50
2022/12/23 12:56:38;;;;;;;;;;;18.00;72.10;;;;;;4927824;28;90638;-52
2022/12/23 12:59:04;;;;;;;81.22;52.25;;;18.10;72.20;;;;;;4933602;28;91372;-51
2022/12/23 13:01:47;;;;;;;74.13;52.22;;;18.20;72.10;;;;;;4920937;28;91865;-54
2022/12/23 13:04:21;;;;;;;73.72;52.05;;;18.20;72.00;;;;;;4919543;28;90425;-55
2022/12/23 13:07:10;;;;;;;76.03;52.80;;;18.20;72.00;;;;;;4923908;28;90821;-54
2022/12/23 13:10:17;;;;;;;74.90;52.13;;;18.20;72.00;;;;;;4943206;28;92741;-54
2022/12/23 13:13:20;;;;;;;73.03;51.65;;;18.30;72.20;;;;;;4923842;28;90247;-55